createdAt,value
2022-11-22T00:00:30.300Z,2.87
2022-11-22T00:02:57.072Z,2.86
2022-11-22T00:05:23.844Z,2.87
2022-11-22T00:07:50.808Z,2.89
2022-11-22T00:10:18.117Z,2.92
2022-11-22T00:12:45.474Z,2.98
2022-11-22T00:15:13.312Z,2.96
2022-11-22T00:17:40.629Z,2.98
2022-11-22T00:20:10.613Z,2.96
2022-11-22T00:22:43.949Z,2.97
2022-11-22T00:25:11.728Z,2.97
2022-11-22T00:27:38.585Z,2.99
2022-11-22T00:30:06.201Z,2.96
2022-11-22T00:32:32.986Z,2.87
2022-11-22T00:34:59.913Z,2.89
2022-11-22T00:37:26.742Z,2.93
2022-11-22T00:39:53.587Z,2.90
2022-11-22T00:42:20.278Z,2.92
2022-11-22T00:44:47.100Z,2.93
2022-11-22T00:47:13.948Z,2.92
2022-11-22T00:49:40.767Z,2.92
2022-11-22T00:52:07.660Z,2.95
2022-11-22T00:54:34.472Z,2.95
2022-11-22T00:57:01.267Z,2.92
2022-11-22T00:59:28.375Z,2.93
2022-11-22T01:01:55.539Z,2.95
2022-11-22T01:04:22.595Z,2.96
2022-11-22T01:06:49.402Z,2.92
2022-11-22T01:09:19.758Z,2.96
2022-11-22T01:11:46.699Z,2.99
2022-11-22T01:14:14.278Z,2.99
2022-11-22T01:16:42.006Z,3.05
2022-11-22T01:19:09.374Z,3.06
2022-11-22T01:21:36.614Z,3.08
2022-11-22T01:24:03.551Z,3.09
2022-11-22T01:26:30.369Z,3.07
2022-11-22T01:28:57.226Z,3.07
2022-11-22T01:31:24.244Z,3.05
2022-11-22T01:33:52.517Z,3.09
2022-11-22T01:36:19.321Z,3.08
2022-11-22T01:38:46.214Z,2.99
2022-11-22T01:41:13.027Z,3.03
2022-11-22T01:43:39.849Z,2.98
2022-11-22T01:46:13.995Z,3.05
2022-11-22T01:49:01.523Z,3.02
2022-11-22T01:51:40.466Z,3.02
2022-11-22T01:54:15.890Z,3.05
2022-11-22T01:56:46.531Z,2.99
2022-11-22T01:59:17.052Z,2.96
2022-11-22T02:01:44.125Z,2.99
2022-11-22T02:04:14.427Z,2.98
2022-11-22T02:07:11.748Z,3.03
2022-11-22T02:09:43.389Z,3.03
2022-11-22T02:12:12.218Z,3.06
2022-11-22T02:14:40.323Z,3.06
2022-11-22T02:17:07.179Z,3.04
2022-11-22T02:19:41.636Z,3.02
2022-11-22T02:22:11.404Z,3.00
2022-11-22T02:24:57.361Z,2.95
2022-11-22T02:27:24.585Z,2.90
2022-11-22T02:29:51.550Z,2.93
2022-11-22T02:32:18.342Z,2.95
2022-11-22T02:34:50.617Z,2.93
2022-11-22T02:37:31.241Z,2.91
2022-11-22T02:40:07.346Z,2.80
2022-11-22T02:42:37.451Z,2.87
2022-11-22T02:45:04.494Z,2.87
2022-11-22T02:47:31.283Z,2.91
2022-11-22T02:49:59.316Z,2.88
2022-11-22T02:52:26.038Z,2.89
2022-11-22T02:54:52.823Z,2.97
2022-11-22T02:57:19.598Z,2.99
2022-11-22T02:59:46.412Z,2.97
2022-11-22T03:02:13.701Z,2.98
2022-11-22T03:04:40.488Z,2.97
2022-11-22T03:07:07.448Z,2.96
2022-11-22T03:09:34.533Z,2.97
2022-11-22T03:12:01.393Z,2.98
2022-11-22T03:14:28.220Z,2.92
2022-11-22T03:16:55.001Z,2.98
2022-11-22T03:19:22.507Z,3.03
2022-11-22T03:21:49.479Z,2.97
2022-11-22T03:24:16.408Z,3.07
2022-11-22T03:26:47.332Z,3.09
2022-11-22T03:29:14.155Z,3.06
2022-11-22T03:31:40.973Z,3.07
2022-11-22T03:34:08.140Z,3.05
2022-11-22T03:36:34.874Z,3.04
2022-11-22T03:39:01.670Z,3.07
2022-11-22T03:41:28.571Z,3.04
2022-11-22T03:43:55.388Z,3.07
2022-11-22T03:46:22.148Z,3.09
2022-11-22T03:48:48.972Z,3.06
2022-11-22T03:51:15.933Z,3.06
2022-11-22T03:53:42.688Z,3.09
2022-11-22T03:56:09.530Z,3.08
2022-11-22T03:58:36.371Z,3.04
2022-11-22T04:01:03.604Z,2.99
2022-11-22T04:03:30.493Z,3.00
2022-11-22T04:05:57.682Z,3.05
2022-11-22T04:08:24.569Z,3.04
2022-11-22T04:10:52.378Z,2.94
2022-11-22T04:13:47.546Z,3.00
2022-11-22T04:16:14.602Z,3.05
2022-11-22T04:18:41.642Z,3.04
2022-11-22T04:21:27.174Z,3.06
2022-11-22T04:24:12.623Z,3.03
2022-11-22T04:26:39.346Z,2.98
2022-11-22T04:29:10.548Z,2.91
2022-11-22T04:31:56.723Z,2.94
2022-11-22T04:34:23.867Z,2.91
2022-11-22T04:36:51.133Z,2.86
2022-11-22T04:39:18.017Z,2.84
2022-11-22T04:41:44.965Z,2.75
2022-11-22T04:44:30.407Z,2.73
2022-11-22T04:46:57.455Z,2.62
2022-11-22T04:49:24.372Z,2.70
2022-11-22T04:52:09.864Z,2.70
2022-11-22T04:54:36.564Z,2.73
2022-11-22T04:57:03.418Z,2.69
2022-11-22T04:59:30.685Z,2.65
2022-11-22T05:01:57.844Z,2.58
2022-11-22T05:04:24.640Z,2.45
2022-11-22T05:06:51.665Z,2.30
2022-11-22T05:09:18.637Z,2.32
2022-11-22T05:11:45.460Z,2.30
2022-11-22T05:14:12.299Z,2.22
2022-11-22T05:16:39.069Z,2.16
2022-11-22T05:19:06.023Z,2.06
2022-11-22T05:21:35.657Z,1.97
2022-11-22T05:24:02.880Z,1.89
2022-11-22T05:26:32.216Z,1.83
2022-11-22T05:28:59.690Z,1.74
2022-11-22T05:31:27.951Z,1.67
2022-11-22T05:33:56.913Z,1.58
2022-11-22T05:36:25.179Z,1.50
2022-11-22T05:38:52.794Z,1.49
2022-11-22T05:41:19.915Z,1.45
2022-11-22T05:43:46.659Z,1.40
2022-11-22T05:46:22.542Z,1.36
2022-11-22T05:48:51.523Z,1.34
2022-11-22T05:51:20.747Z,1.31
2022-11-22T05:53:47.694Z,1.27
2022-11-22T05:56:17.165Z,1.22
2022-11-22T05:58:44.470Z,1.21
2022-11-22T06:01:23.101Z,1.22
2022-11-22T06:03:50.917Z,1.16
2022-11-22T06:06:18.229Z,1.11
2022-11-22T06:08:47.980Z,1.09
2022-11-22T06:11:17.420Z,1.09
2022-11-22T06:13:45.841Z,1.11
2022-11-22T06:16:13.366Z,1.08
2022-11-22T06:18:40.454Z,1.07
2022-11-22T06:21:16.663Z,1.09
2022-11-22T06:23:44.005Z,1.13
2022-11-22T06:26:13.610Z,1.14
2022-11-22T06:28:41.091Z,1.15
2022-11-22T06:31:14.800Z,1.18
2022-11-22T06:33:42.936Z,1.25
2022-11-22T06:36:11.040Z,1.21
2022-11-22T06:38:39.307Z,1.31
2022-11-22T06:41:08.186Z,1.37
2022-11-22T06:43:36.557Z,1.38
2022-11-22T06:46:04.944Z,1.41
2022-11-22T06:48:37.100Z,1.39
2022-11-22T06:51:06.838Z,1.50
2022-11-22T06:53:50.774Z,1.55
2022-11-22T06:56:22.882Z,1.68
2022-11-22T06:58:51.679Z,1.77
2022-11-22T07:01:20.802Z,1.92
2022-11-22T07:03:48.480Z,2.07
2022-11-22T07:06:16.720Z,2.16
2022-11-22T07:08:44.860Z,2.19
2022-11-22T07:11:14.613Z,2.31
2022-11-22T07:13:41.704Z,2.44
2022-11-22T07:16:10.496Z,2.50
2022-11-22T07:18:37.844Z,2.54
2022-11-22T07:21:32.763Z,2.51
2022-11-22T07:23:59.632Z,2.58
2022-11-22T07:26:26.960Z,2.67
2022-11-22T07:28:53.726Z,2.70
2022-11-22T07:31:20.932Z,2.72
2022-11-22T07:33:48.005Z,2.79
2022-11-22T07:36:20.515Z,2.74
2022-11-22T07:38:48.604Z,2.79
2022-11-22T07:41:17.841Z,2.84
2022-11-22T07:43:46.122Z,2.86
2022-11-22T07:46:23.667Z,2.92
2022-11-22T07:48:51.113Z,2.88
2022-11-22T07:51:18.379Z,2.88
2022-11-22T07:53:45.487Z,2.91
2022-11-22T07:56:12.675Z,2.77
2022-11-22T07:58:39.695Z,2.78
2022-11-22T08:01:18.527Z,2.76
2022-11-22T08:03:45.888Z,2.83
2022-11-22T08:06:13.860Z,2.76
2022-11-22T08:08:40.871Z,2.86
2022-11-22T08:11:08.686Z,2.91
2022-11-22T08:13:36.509Z,2.71
2022-11-22T08:16:06.873Z,2.72
2022-11-22T08:18:34.689Z,2.81
2022-11-22T08:21:04.664Z,2.93
2022-11-22T08:23:43.132Z,3.03
2022-11-22T08:26:12.642Z,3.11
2022-11-22T08:28:40.440Z,3.13
2022-11-22T08:31:10.597Z,3.16
2022-11-22T08:33:37.378Z,3.21
2022-11-22T08:36:05.212Z,3.25
2022-11-22T08:38:32.290Z,3.19
2022-11-22T08:40:59.080Z,3.19
2022-11-22T08:43:25.819Z,3.20
2022-11-22T08:45:57.417Z,3.14
2022-11-22T08:48:28.486Z,3.15
2022-11-22T08:51:01.959Z,3.17
2022-11-22T08:53:32.303Z,3.02
2022-11-22T08:56:00.906Z,3.19
2022-11-22T08:58:29.926Z,3.19
2022-11-22T09:00:58.560Z,3.17
2022-11-22T09:03:25.469Z,3.19
2022-11-22T09:08:43.592Z,3.20
2022-11-22T09:11:14.354Z,3.25
2022-11-22T09:13:41.725Z,3.34
2022-11-22T09:16:14.821Z,3.47
2022-11-22T09:18:42.101Z,3.45
2022-11-22T09:21:14.411Z,3.47
2022-11-22T09:23:42.448Z,3.44
2022-11-22T09:26:12.714Z,3.53
2022-11-22T09:28:39.659Z,3.50
2022-11-22T09:31:08.285Z,3.68
2022-11-22T09:33:37.200Z,3.70
2022-11-22T09:36:06.768Z,3.84
2022-11-22T09:38:35.286Z,3.87
2022-11-22T09:41:11.299Z,3.95
2022-11-22T09:44:01.241Z,3.93
2022-11-22T09:46:55.467Z,3.93
2022-11-22T09:50:02.847Z,3.85
2022-11-22T09:52:40.837Z,4.02
2022-11-22T09:55:34.938Z,4.07
2022-11-22T09:58:28.752Z,4.13
2022-11-22T10:01:02.224Z,4.17
2022-11-22T10:03:34.935Z,4.16
2022-11-22T10:06:06.895Z,4.09
2022-11-22T10:08:40.776Z,4.18
2022-11-22T10:11:36.083Z,4.20
2022-11-22T10:14:13.478Z,3.94
2022-11-22T10:16:51.372Z,4.23
2022-11-22T10:19:25.381Z,4.25
2022-11-22T10:21:52.441Z,4.24
2022-11-22T10:24:19.926Z,4.35
2022-11-22T10:26:47.238Z,4.46
2022-11-22T10:29:23.628Z,4.64
2022-11-22T10:31:58.684Z,4.66
2022-11-22T10:34:39.758Z,4.66
2022-11-22T10:37:13.822Z,4.65
2022-11-22T10:39:55.497Z,4.75
2022-11-22T10:42:51.493Z,4.59
2022-11-22T10:45:29.687Z,4.82
2022-11-22T10:48:05.854Z,4.83
2022-11-22T10:51:10.999Z,4.68
2022-11-22T10:54:11.792Z,4.61
2022-11-22T10:56:38.555Z,4.69
2022-11-22T10:59:18.480Z,4.70
2022-11-22T11:01:54.204Z,4.76
2022-11-22T11:04:23.639Z,4.81
2022-11-22T11:07:11.672Z,4.83
2022-11-22T11:12:54.256Z,4.82
2022-11-22T11:15:24.657Z,4.86
2022-11-22T11:18:01.341Z,4.86
2022-11-22T11:20:36.851Z,4.80
2022-11-22T11:23:18.927Z,4.80
2022-11-22T11:25:47.800Z,4.81
2022-11-22T11:28:24.875Z,4.88
2022-11-22T11:31:13.784Z,4.94
2022-11-22T11:33:41.623Z,4.93
2022-11-22T11:36:12.200Z,4.93
2022-11-22T11:38:45.015Z,4.98
2022-11-22T11:41:18.969Z,5.05
2022-11-22T11:43:46.658Z,5.17
2022-11-22T11:46:22.076Z,5.21
2022-11-22T11:48:51.188Z,5.26
2022-11-22T11:51:37.864Z,5.28
2022-11-22T11:54:23.884Z,5.37
2022-11-22T11:56:52.005Z,5.38
2022-11-22T11:59:21.402Z,5.32
2022-11-22T12:01:51.272Z,5.32
2022-11-22T12:04:24.455Z,5.38
2022-11-22T12:07:01.736Z,5.44
2022-11-22T12:09:37.120Z,5.39
2022-11-22T12:12:29.895Z,5.16
2022-11-22T12:15:13.388Z,5.22
2022-11-22T12:17:57.297Z,5.32
2022-11-22T12:20:39.794Z,5.36
2022-11-22T12:23:20.536Z,5.36
2022-11-22T12:25:48.284Z,5.42
2022-11-22T12:28:18.506Z,5.41
2022-11-22T12:30:52.228Z,5.42
2022-11-22T12:33:24.760Z,5.34
2022-11-22T12:35:54.887Z,5.32
2022-11-22T12:38:30.105Z,5.32
2022-11-22T12:41:00.656Z,5.32
2022-11-22T12:43:35.071Z,5.30
2022-11-22T12:46:09.912Z,5.31
2022-11-22T12:48:53.039Z,5.28
2022-11-22T12:51:45.527Z,5.24
2022-11-22T12:54:30.748Z,5.22
2022-11-22T12:57:02.624Z,5.20
2022-11-22T12:59:36.261Z,5.14
2022-11-22T13:02:40.726Z,5.11
2022-11-22T13:05:17.070Z,5.12
2022-11-22T13:08:01.233Z,5.14
2022-11-22T13:10:40.635Z,5.10
2022-11-22T13:13:27.921Z,5.07
2022-11-22T13:15:57.722Z,5.11
2022-11-22T13:18:30.300Z,5.12
2022-11-22T13:21:06.733Z,5.08
2022-11-22T13:24:12.080Z,5.13
2022-11-22T13:26:55.333Z,4.97
2022-11-22T13:29:25.857Z,5.08
2022-11-22T13:32:06.627Z,5.08
2022-11-22T13:34:36.304Z,5.03
2022-11-22T13:37:13.685Z,5.05
2022-11-22T13:39:47.543Z,4.99
2022-11-22T13:42:26.596Z,5.03
2022-11-22T13:44:56.007Z,4.98
2022-11-22T13:47:22.789Z,4.95
2022-11-22T13:49:51.526Z,4.95
2022-11-22T13:52:18.219Z,4.83
2022-11-22T13:54:47.809Z,4.84
2022-11-22T13:57:31.189Z,4.82
2022-11-22T14:00:16.749Z,4.83
2022-11-22T14:02:49.138Z,4.82
2022-11-22T14:05:21.305Z,4.80
2022-11-22T14:07:52.904Z,4.78
2022-11-22T14:10:32.606Z,4.76
2022-11-22T14:13:37.561Z,4.73
2022-11-22T14:16:21.577Z,4.73
2022-11-22T14:18:58.060Z,4.74
2022-11-22T14:22:03.512Z,4.77
2022-11-22T14:24:49.702Z,4.77
2022-11-22T14:27:36.481Z,4.74
2022-11-22T14:30:18.308Z,4.74
2022-11-22T14:33:02.672Z,4.76
2022-11-22T14:35:38.210Z,4.75
2022-11-22T14:38:08.054Z,4.71
2022-11-22T14:40:37.570Z,4.71
2022-11-22T14:43:11.528Z,4.70
2022-11-22T14:45:59.809Z,4.71
2022-11-22T14:48:46.691Z,4.67
2022-11-22T14:51:30.744Z,4.62
2022-11-22T14:54:02.520Z,4.56
2022-11-22T14:56:36.215Z,4.59
2022-11-22T14:59:15.178Z,4.52
2022-11-22T15:01:56.664Z,4.52
2022-11-22T15:09:11.396Z,4.47
2022-11-22T15:09:16.277Z,4.45
2022-11-22T15:11:02.896Z,4.40
2022-11-22T15:13:38.941Z,4.40
2022-11-22T15:59:46.934Z,3.89
2022-11-22T16:02:22.800Z,3.87
2022-11-22T16:06:05.353Z,3.86
2022-11-22T16:07:49.473Z,3.86
2022-11-22T16:10:37.824Z,3.82
2022-11-22T16:13:20.023Z,3.79
2022-11-22T16:16:12.873Z,3.77
2022-11-22T16:18:44.090Z,3.72
2022-11-22T16:21:11.446Z,3.73
2022-11-22T16:23:42.271Z,3.70
2022-11-22T16:26:20.142Z,3.70
2022-11-22T16:28:49.521Z,3.66
2022-11-22T16:31:22.388Z,3.68
2022-11-22T16:33:52.115Z,3.64
2022-11-22T16:36:21.342Z,3.62
2022-11-22T16:38:48.567Z,3.60
2022-11-22T16:41:26.302Z,3.57
2022-11-22T16:43:55.785Z,3.52
2022-11-22T16:46:22.959Z,3.47
2022-11-22T16:48:50.061Z,3.44
2022-11-22T16:51:30.669Z,3.38
2022-11-22T16:54:00.749Z,3.33
2022-11-22T16:56:30.341Z,3.30
2022-11-22T16:58:58.018Z,3.28
2022-11-22T17:01:27.173Z,3.25
2022-11-22T17:03:56.767Z,3.20
2022-11-22T17:06:28.964Z,3.19
2022-11-22T17:08:58.335Z,3.18
2022-11-22T17:11:31.012Z,3.21
2022-11-22T17:13:59.657Z,3.21
2022-11-22T17:16:27.186Z,3.16
2022-11-22T17:18:54.683Z,3.21
2022-11-22T17:21:37.597Z,3.22
2022-11-22T17:24:14.986Z,3.22
2022-11-22T17:26:42.152Z,3.21
2022-11-22T17:29:18.399Z,3.23
2022-11-22T17:31:56.590Z,3.19
2022-11-22T17:34:23.667Z,3.21
2022-11-22T17:36:50.929Z,3.22
2022-11-22T17:39:18.163Z,3.21
2022-11-22T17:41:49.135Z,3.20
2022-11-22T17:44:18.373Z,3.19
2022-11-22T17:46:47.467Z,3.20
2022-11-22T17:49:16.332Z,3.22
2022-11-22T17:51:44.272Z,3.22
2022-11-22T17:54:11.674Z,3.24
2022-11-22T17:56:39.413Z,3.24
2022-11-22T17:59:07.193Z,3.25
2022-11-22T18:01:36.814Z,3.27
2022-11-22T18:04:04.003Z,3.17
2022-11-22T18:06:31.882Z,3.29
2022-11-22T18:08:59.518Z,3.29
2022-11-22T18:11:26.721Z,3.29
2022-11-22T18:13:54.348Z,3.27
2022-11-22T18:16:22.721Z,3.27
2022-11-22T18:18:58.289Z,3.27
2022-11-22T18:21:29.389Z,3.26
2022-11-22T18:23:58.977Z,3.23
2022-11-22T18:26:42.209Z,3.25
2022-11-22T18:31:59.724Z,3.25
2022-11-22T18:34:27.980Z,3.20
2022-11-22T18:37:00.348Z,3.22
2022-11-22T18:39:29.253Z,3.21
2022-11-22T18:41:57.107Z,3.24
2022-11-22T18:44:24.464Z,3.26
2022-11-22T18:46:51.898Z,3.28
2022-11-22T18:49:19.517Z,3.30
2022-11-22T18:51:46.476Z,3.29
2022-11-22T18:54:13.875Z,3.31
2022-11-22T18:56:41.268Z,3.34
2022-11-22T18:59:13.015Z,3.33
2022-11-22T19:01:44.005Z,3.35
2022-11-22T19:04:14.659Z,3.38
2022-11-22T19:06:42.769Z,3.40
2022-11-22T19:09:09.756Z,3.43
2022-11-22T19:11:37.218Z,3.36
2022-11-22T19:14:05.492Z,3.46
2022-11-22T19:16:32.827Z,3.47
2022-11-22T19:19:00.742Z,3.47
2022-11-22T19:21:29.237Z,3.45
2022-11-22T19:23:57.399Z,3.46
2022-11-22T19:26:26.465Z,3.50
2022-11-22T19:28:59.013Z,3.53
2022-11-22T19:31:29.591Z,3.54
2022-11-22T19:33:59.699Z,3.56
2022-11-22T19:36:33.287Z,3.59
2022-11-22T19:39:03.826Z,3.59
2022-11-22T19:41:31.591Z,3.62
2022-11-22T19:44:00.527Z,3.63
2022-11-22T19:46:29.495Z,3.61
2022-11-22T19:48:59.227Z,3.62
2022-11-22T19:51:28.694Z,3.65
2022-11-22T19:53:59.902Z,3.68
2022-11-22T19:56:32.294Z,3.70
2022-11-22T19:59:02.074Z,3.71
2022-11-22T20:01:32.356Z,3.71
2022-11-22T20:04:05.891Z,3.71
2022-11-22T20:06:35.180Z,3.72
2022-11-22T20:09:09.817Z,3.73
2022-11-22T20:11:39.062Z,3.72
2022-11-22T20:14:07.398Z,3.76
2022-11-22T20:16:34.812Z,3.77
2022-11-22T20:19:05.305Z,3.78
2022-11-22T20:21:34.352Z,3.78
2022-11-22T20:24:03.226Z,3.77
2022-11-22T20:26:32.191Z,3.81
2022-11-22T20:29:05.120Z,3.79
2022-11-22T20:31:34.294Z,3.80
2022-11-22T20:34:03.119Z,3.81
2022-11-22T20:36:33.955Z,3.82
2022-11-22T20:39:06.759Z,3.86
2022-11-22T20:41:36.172Z,3.87
2022-11-22T20:44:03.493Z,3.86
2022-11-22T20:46:30.861Z,3.86
2022-11-22T20:48:58.916Z,3.87
2022-11-22T20:51:28.113Z,3.91
2022-11-22T20:53:57.456Z,3.90
2022-11-22T20:56:25.695Z,3.91
2022-11-22T20:58:52.762Z,3.89
2022-11-22T21:01:24.982Z,3.91
2022-11-22T21:03:53.941Z,3.92
2022-11-22T21:06:23.023Z,3.92
2022-11-22T21:08:50.106Z,3.94
2022-11-22T21:11:18.903Z,3.96
2022-11-22T21:13:47.598Z,3.98
2022-11-22T21:16:28.810Z,3.98
2022-11-22T21:18:58.446Z,3.95
2022-11-22T21:21:26.376Z,3.95
2022-11-22T21:23:55.614Z,3.98
2022-11-22T21:26:23.963Z,3.99
2022-11-22T21:28:51.028Z,3.98
2022-11-22T21:31:18.532Z,3.97
2022-11-22T21:33:45.897Z,3.96
2022-11-22T21:36:12.797Z,3.97
2022-11-22T21:38:39.548Z,3.95
2022-11-22T21:41:38.300Z,3.94
2022-11-22T21:43:56.929Z,3.93
2022-11-22T21:46:25.101Z,3.92
2022-11-22T21:48:52.239Z,3.92
2022-11-22T21:51:19.556Z,3.88
2022-11-22T21:53:46.263Z,3.92
2022-11-22T21:56:13.028Z,3.92
2022-11-22T21:58:39.822Z,3.92
2022-11-22T22:01:15.682Z,3.92
2022-11-22T22:03:42.441Z,3.93
2022-11-22T22:06:09.331Z,3.94
2022-11-22T22:08:36.439Z,3.91
2022-11-22T22:11:05.367Z,3.88
2022-11-22T22:13:32.825Z,3.91
2022-11-22T22:16:03.525Z,3.84
2022-11-22T22:18:37.940Z,3.83
2022-11-22T22:21:07.674Z,3.74
2022-11-22T22:23:36.322Z,3.67
2022-11-22T22:26:08.378Z,3.73
2022-11-22T22:28:37.995Z,3.74
2022-11-22T22:31:10.508Z,3.76
2022-11-22T22:33:39.837Z,3.74
2022-11-22T22:36:08.122Z,3.77
2022-11-22T22:38:35.627Z,3.73
2022-11-22T22:41:04.370Z,3.76
2022-11-22T22:43:35.443Z,3.79
2022-11-22T22:46:19.605Z,3.79
2022-11-22T22:48:48.008Z,3.78
2022-11-22T22:51:27.542Z,3.74
2022-11-22T22:53:58.124Z,3.75
2022-11-22T22:56:25.298Z,3.68
2022-11-22T22:58:56.224Z,3.68
2022-11-22T23:01:27.746Z,3.72
2022-11-22T23:03:59.691Z,3.71
2022-11-22T23:06:29.801Z,3.71
2022-11-22T23:08:57.555Z,3.76
2022-11-22T23:11:46.406Z,3.75
2022-11-22T23:14:15.215Z,3.75
2022-11-22T23:16:42.231Z,3.77
2022-11-22T23:19:09.571Z,3.73
2022-11-22T23:21:36.406Z,3.75
2022-11-22T23:24:03.830Z,3.73
2022-11-22T23:26:31.174Z,3.70
2022-11-22T23:28:59.162Z,3.72
2022-11-22T23:31:26.939Z,3.75
2022-11-22T23:33:54.504Z,3.75
2022-11-22T23:36:22.944Z,3.76
2022-11-22T23:38:49.700Z,3.75
2022-11-22T23:41:21.068Z,3.73
2022-11-22T23:43:52.637Z,3.76
2022-11-22T23:46:19.483Z,3.72
2022-11-22T23:48:48.323Z,3.78
2022-11-22T23:51:15.628Z,3.78
2022-11-22T23:53:42.520Z,3.71
2022-11-22T23:56:21.840Z,3.74
2022-11-22T23:58:49.580Z,3.70
